createdAt,value
2023-03-02T00:01:55.130Z,48.63
2023-03-02T00:04:33.560Z,49.64
2023-03-02T00:07:08.095Z,49.19
2023-03-02T00:09:35.474Z,49.19
2023-03-02T00:12:02.478Z,52.61
2023-03-02T00:14:29.407Z,52.68
2023-03-02T00:16:56.504Z,51.53
2023-03-02T00:19:23.518Z,55.83
2023-03-02T00:21:50.615Z,56.03
2023-03-02T00:24:17.685Z,55.94
2023-03-02T00:26:44.937Z,55.17
2023-03-02T00:29:12.046Z,54.98
2023-03-02T00:31:39.243Z,54.04
2023-03-02T00:34:06.322Z,52.38
2023-03-02T00:36:33.250Z,51.26
2023-03-02T00:39:00.256Z,50.88
2023-03-02T00:41:27.412Z,51.17
2023-03-02T00:43:54.468Z,50.95
2023-03-02T00:46:23.028Z,49.35
2023-03-02T00:48:50.446Z,50.01
2023-03-02T00:51:17.884Z,50.70
2023-03-02T00:53:44.951Z,49.59
2023-03-02T00:56:12.241Z,51.11
2023-03-02T00:58:43.968Z,52.84
2023-03-02T01:01:12.077Z,51.34
2023-03-02T01:03:43.760Z,51.21
2023-03-02T01:06:15.472Z,54.76
2023-03-02T01:08:42.493Z,52.83
2023-03-02T01:11:16.717Z,52.59
2023-03-02T01:13:44.209Z,51.99
2023-03-02T01:16:12.112Z,50.89
2023-03-02T01:18:39.915Z,50.34
2023-03-02T01:21:12.309Z,49.28
2023-03-02T01:23:39.248Z,49.82
2023-03-02T01:26:06.411Z,49.03
2023-03-02T01:28:33.806Z,48.58
2023-03-02T01:31:02.775Z,48.53
2023-03-02T01:33:30.674Z,48.49
2023-03-02T01:35:57.656Z,47.91
2023-03-02T01:38:24.727Z,49.16
2023-03-02T01:40:52.051Z,48.81
2023-03-02T01:43:19.141Z,47.53
2023-03-02T01:45:47.664Z,47.21
2023-03-02T01:48:23.916Z,47.26
2023-03-02T01:50:50.979Z,47.25
2023-03-02T01:53:18.195Z,47.14
2023-03-02T01:55:45.937Z,46.74
2023-03-02T01:58:13.821Z,47.23
2023-03-02T02:00:41.157Z,47.61
2023-03-02T02:03:27.814Z,47.90
2023-03-02T02:06:25.210Z,48.32
2023-03-02T02:08:53.015Z,48.39
2023-03-02T02:11:19.984Z,49.53
2023-03-02T02:13:55.346Z,48.55
2023-03-02T02:16:22.392Z,49.39
2023-03-02T02:18:49.534Z,48.80
2023-03-02T02:21:16.473Z,48.44
2023-03-02T02:23:49.383Z,48.16
2023-03-02T02:26:22.841Z,48.50
2023-03-02T02:29:08.435Z,48.35
2023-03-02T02:31:50.663Z,47.77
2023-03-02T02:34:25.209Z,49.05
2023-03-02T02:36:55.338Z,48.36
2023-03-02T02:39:25.150Z,47.95
2023-03-02T02:41:55.700Z,47.95
2023-03-02T02:44:23.418Z,47.37
2023-03-02T02:46:50.383Z,47.42
2023-03-02T02:49:28.726Z,47.39
2023-03-02T02:51:55.711Z,48.13
2023-03-02T02:54:22.898Z,48.79
2023-03-02T02:56:50.612Z,51.34
2023-03-02T02:59:25.569Z,50.39
2023-03-02T03:01:52.899Z,49.36
2023-03-02T03:04:21.624Z,48.94
2023-03-02T03:07:02.485Z,49.47
2023-03-02T03:09:29.878Z,48.65
2023-03-02T03:12:14.975Z,48.83
2023-03-02T03:14:41.996Z,48.83
2023-03-02T03:17:13.550Z,48.65
2023-03-02T03:19:47.808Z,49.16
2023-03-02T03:22:16.385Z,49.03
2023-03-02T03:24:45.521Z,48.30
2023-03-02T03:27:14.840Z,48.79
2023-03-02T03:29:44.765Z,48.58
2023-03-02T03:32:13.849Z,48.61
2023-03-02T03:34:41.719Z,48.59
2023-03-02T03:37:17.436Z,49.39
2023-03-02T03:39:45.171Z,49.38
2023-03-02T03:42:12.219Z,49.60
2023-03-02T03:44:39.202Z,49.22
2023-03-02T03:47:06.435Z,48.59
2023-03-02T03:49:33.663Z,49.02
2023-03-02T03:52:00.783Z,48.49
2023-03-02T03:54:28.055Z,48.43
2023-03-02T03:56:55.365Z,48.21
2023-03-02T03:59:24.156Z,48.70
2023-03-02T04:01:57.223Z,49.29
2023-03-02T04:04:29.257Z,49.57
2023-03-02T04:06:56.833Z,50.25
2023-03-02T04:09:24.686Z,49.94
2023-03-02T04:11:53.593Z,49.15
2023-03-02T04:14:21.482Z,49.14
2023-03-02T04:16:49.019Z,48.70
2023-03-02T04:19:17.668Z,49.17
2023-03-02T04:21:49.097Z,49.43
2023-03-02T04:24:18.496Z,50.40
2023-03-02T04:26:45.623Z,50.93
2023-03-02T04:29:12.777Z,51.22
2023-03-02T04:31:40.771Z,51.08
2023-03-02T04:34:08.610Z,50.50
2023-03-02T04:36:39.018Z,49.71
2023-03-02T04:39:08.767Z,49.41
2023-03-02T04:41:36.020Z,48.97
2023-03-02T04:44:03.111Z,50.08
2023-03-02T04:46:30.517Z,50.42
2023-03-02T04:48:57.634Z,51.69
2023-03-02T04:51:30.212Z,51.05
2023-03-02T04:53:59.237Z,50.67
2023-03-02T04:56:26.180Z,50.42
2023-03-02T04:58:53.363Z,49.70
2023-03-02T05:01:20.265Z,50.24
2023-03-02T05:03:47.372Z,50.74
2023-03-02T05:06:14.519Z,50.78
2023-03-02T05:08:41.611Z,50.37
2023-03-02T05:11:09.045Z,50.54
2023-03-02T05:13:36.273Z,50.46
2023-03-02T05:16:03.475Z,50.50
2023-03-02T05:18:31.293Z,50.17
2023-03-02T05:20:58.368Z,49.97
2023-03-02T05:23:26.015Z,49.87
2023-03-02T05:25:55.943Z,49.77
2023-03-02T05:28:24.144Z,50.21
2023-03-02T05:30:51.291Z,50.54
2023-03-02T05:33:18.621Z,50.60
2023-03-02T05:35:45.599Z,50.77
2023-03-02T05:38:12.613Z,50.56
2023-03-02T05:40:40.467Z,51.42
2023-03-02T05:43:07.498Z,51.94
2023-03-02T05:45:36.410Z,50.84
2023-03-02T05:48:03.612Z,50.91
2023-03-02T05:50:30.759Z,51.09
2023-03-02T05:53:00.235Z,51.53
2023-03-02T05:55:27.289Z,51.59
2023-03-02T05:57:54.693Z,51.15
2023-03-02T06:00:22.023Z,50.94
2023-03-02T06:02:49.053Z,51.15
2023-03-02T06:05:18.384Z,52.43
2023-03-02T06:07:45.509Z,51.80
2023-03-02T06:10:12.754Z,52.08
2023-03-02T06:12:39.809Z,50.83
2023-03-02T06:15:07.308Z,50.61
2023-03-02T06:17:34.699Z,50.72
2023-03-02T06:20:01.646Z,51.92
2023-03-02T06:22:28.652Z,53.35
2023-03-02T06:24:55.580Z,52.02
2023-03-02T06:27:22.557Z,51.64
2023-03-02T06:29:49.772Z,52.35
2023-03-02T06:32:17.037Z,51.85
2023-03-02T06:34:44.408Z,52.05
2023-03-02T06:37:13.016Z,50.76
2023-03-02T06:39:39.956Z,50.89
2023-03-02T06:42:06.941Z,51.06
2023-03-02T06:44:33.886Z,51.90
2023-03-02T06:47:00.829Z,51.27
2023-03-02T06:49:27.936Z,52.23
2023-03-02T06:51:54.934Z,51.67
2023-03-02T06:54:24.080Z,51.06
2023-03-02T06:56:51.213Z,51.03
2023-03-02T06:59:18.232Z,50.86
2023-03-02T07:01:45.202Z,50.82
2023-03-02T07:04:12.247Z,52.77
2023-03-02T07:06:39.251Z,52.16
2023-03-02T07:09:06.195Z,55.72
2023-03-02T07:11:33.403Z,55.64
2023-03-02T07:14:01.121Z,54.59
2023-03-02T07:16:31.262Z,55.14
2023-03-02T07:18:58.353Z,53.64
2023-03-02T07:21:25.364Z,53.19
2023-03-02T07:23:52.571Z,53.18
2023-03-02T07:26:19.514Z,56.81
2023-03-02T07:28:46.532Z,57.62
2023-03-02T07:31:13.839Z,58.93
2023-03-02T07:33:40.894Z,57.03
2023-03-02T07:36:08.644Z,55.54
2023-03-02T07:38:36.581Z,53.74
2023-03-02T07:41:07.230Z,52.25
2023-03-02T07:43:35.678Z,51.91
2023-03-02T07:46:04.549Z,51.30
2023-03-02T07:48:32.438Z,53.27
2023-03-02T07:51:00.624Z,56.26
2023-03-02T07:53:28.076Z,57.18
2023-03-02T07:55:55.277Z,58.23
2023-03-02T07:58:22.284Z,58.22
2023-03-02T08:00:49.312Z,57.77
2023-03-02T08:03:16.447Z,57.13
2023-03-02T08:05:43.668Z,56.32
2023-03-02T08:08:10.640Z,56.29
2023-03-02T08:10:38.045Z,55.69
2023-03-02T08:13:05.292Z,55.25
2023-03-02T08:15:32.619Z,56.15
2023-03-02T08:17:59.715Z,55.23
2023-03-02T08:20:26.702Z,55.25
2023-03-02T08:22:53.712Z,53.27
2023-03-02T08:25:20.680Z,54.79
2023-03-02T08:27:47.733Z,54.54
2023-03-02T08:30:14.906Z,55.02
2023-03-02T08:32:41.969Z,54.85
2023-03-02T08:35:09.239Z,55.59
2023-03-02T08:37:36.395Z,55.82
2023-03-02T08:40:04.043Z,55.19
2023-03-02T08:42:31.038Z,52.97
2023-03-02T08:44:58.021Z,51.33
2023-03-02T08:47:25.026Z,51.25
2023-03-02T08:49:51.988Z,51.69
2023-03-02T08:52:19.169Z,49.09
2023-03-02T08:54:46.449Z,52.43
2023-03-02T08:57:14.550Z,52.09
2023-03-02T08:59:41.548Z,52.06
2023-03-02T09:02:11.411Z,49.91
2023-03-02T09:04:38.729Z,52.82
2023-03-02T09:07:06.048Z,50.69
2023-03-02T09:09:34.378Z,50.62
2023-03-02T09:12:01.987Z,51.59
2023-03-02T09:14:29.137Z,51.72
2023-03-02T09:16:56.156Z,50.80
2023-03-02T09:19:23.218Z,50.24
2023-03-02T09:21:50.370Z,46.84
2023-03-02T09:24:17.375Z,47.74
2023-03-02T09:26:44.566Z,49.27
2023-03-02T09:29:11.960Z,50.19
2023-03-02T09:31:39.457Z,50.41
2023-03-02T09:34:07.172Z,49.21
2023-03-02T09:36:34.779Z,49.93
2023-03-02T09:39:03.825Z,47.68
2023-03-02T09:41:53.963Z,49.78
2023-03-02T09:44:45.261Z,50.15
2023-03-02T09:47:12.272Z,50.71
2023-03-02T09:49:57.956Z,50.64
2023-03-02T09:52:35.864Z,49.06
2023-03-02T09:55:25.068Z,48.36
2023-03-02T09:57:53.135Z,46.92
2023-03-02T10:00:27.083Z,45.45
2023-03-02T10:03:16.503Z,44.82
2023-03-02T10:05:48.967Z,46.46
2023-03-02T10:08:21.768Z,46.94
2023-03-02T10:11:03.450Z,45.48
2023-03-02T10:13:52.512Z,44.98
2023-03-02T10:16:50.266Z,46.46
2023-03-02T10:19:32.588Z,45.58
2023-03-02T10:22:24.460Z,45.41
2023-03-02T10:25:23.905Z,47.70
2023-03-02T10:27:52.782Z,44.60
2023-03-02T10:30:34.116Z,46.71
2023-03-02T10:33:22.999Z,44.40
2023-03-02T10:35:51.216Z,43.12
2023-03-02T10:38:20.293Z,44.38
2023-03-02T10:41:00.380Z,47.01
2023-03-02T10:43:34.775Z,45.30
2023-03-02T10:46:08.904Z,46.88
2023-03-02T10:48:54.629Z,44.16
2023-03-02T10:51:28.821Z,44.03
2023-03-02T10:54:10.485Z,44.98
2023-03-02T10:56:37.740Z,48.14
2023-03-02T10:59:29.807Z,46.12
2023-03-02T11:02:01.761Z,44.12
2023-03-02T11:04:29.630Z,44.87
2023-03-02T11:07:14.919Z,44.13
2023-03-02T11:09:42.013Z,42.39
2023-03-02T11:12:16.506Z,43.15
2023-03-02T11:14:43.620Z,41.67
2023-03-02T11:17:31.168Z,40.77
2023-03-02T11:19:58.216Z,42.84
2023-03-02T11:22:34.731Z,41.02
2023-03-02T11:25:01.969Z,39.18
2023-03-02T11:27:31.240Z,38.69
2023-03-02T11:30:04.819Z,40.15
2023-03-02T11:32:50.479Z,44.15
2023-03-02T11:35:39.413Z,43.09
2023-03-02T11:38:19.787Z,41.82
2023-03-02T11:40:51.872Z,42.35
2023-03-02T11:43:19.130Z,41.75
2023-03-02T11:46:10.914Z,41.59
2023-03-02T11:48:43.201Z,41.14
2023-03-02T11:51:15.039Z,41.36
2023-03-02T11:53:43.546Z,39.30
2023-03-02T11:56:10.558Z,40.87
2023-03-02T11:58:37.955Z,38.65
2023-03-02T12:01:05.103Z,39.13
2023-03-02T12:03:31.945Z,42.43
2023-03-02T12:06:07.269Z,43.58
2023-03-02T12:08:40.470Z,43.12
2023-03-02T12:11:25.662Z,44.27
2023-03-02T12:13:52.759Z,44.69
2023-03-02T12:16:36.810Z,44.37
2023-03-02T12:19:28.998Z,43.43
2023-03-02T12:22:00.578Z,41.13
2023-03-02T12:24:32.396Z,40.71
2023-03-02T12:27:27.335Z,42.72
2023-03-02T12:30:08.898Z,43.13
2023-03-02T12:32:36.162Z,43.86
2023-03-02T12:35:08.877Z,41.73
2023-03-02T12:37:59.181Z,42.73
2023-03-02T12:40:28.946Z,44.77
2023-03-02T12:43:18.833Z,43.74
2023-03-02T12:46:23.288Z,43.21
2023-03-02T12:48:53.624Z,42.25
2023-03-02T12:51:22.462Z,42.94
2023-03-02T12:53:50.596Z,43.59
2023-03-02T12:56:24.528Z,44.70
2023-03-02T12:58:52.286Z,44.46
2023-03-02T13:01:27.866Z,45.35
2023-03-02T13:03:55.213Z,43.55
2023-03-02T13:06:23.866Z,42.94
2023-03-02T13:08:53.467Z,42.94
2023-03-02T13:11:29.053Z,42.57
2023-03-02T13:13:56.743Z,42.99
2023-03-02T13:16:28.447Z,43.11
2023-03-02T13:18:57.854Z,43.50
2023-03-02T13:21:37.968Z,43.98
2023-03-02T13:24:33.304Z,44.18
2023-03-02T13:27:04.692Z,44.02
2023-03-02T13:29:32.045Z,44.15
2023-03-02T13:32:34.026Z,42.53
2023-03-02T13:35:02.638Z,40.25
2023-03-02T13:37:43.625Z,40.66
2023-03-02T13:40:23.353Z,40.05
2023-03-02T13:42:51.798Z,41.29
2023-03-02T13:45:21.879Z,41.92
2023-03-02T13:47:48.939Z,42.41
2023-03-02T13:50:29.404Z,40.00
2023-03-02T13:53:02.505Z,40.72
2023-03-02T13:55:30.053Z,38.86
2023-03-02T13:57:56.967Z,37.94
2023-03-02T14:00:28.677Z,37.26
2023-03-02T14:02:55.724Z,38.51
2023-03-02T14:05:24.497Z,40.34
2023-03-02T14:07:51.649Z,40.44
2023-03-02T14:10:19.065Z,39.56
2023-03-02T14:12:54.006Z,39.77
2023-03-02T14:15:21.055Z,39.35
2023-03-02T14:17:49.438Z,36.99
2023-03-02T14:20:21.029Z,36.83
2023-03-02T14:22:48.216Z,38.26
2023-03-02T14:25:15.497Z,41.42
2023-03-02T14:27:42.879Z,39.96
2023-03-02T14:30:20.365Z,40.32
2023-03-02T14:32:47.439Z,40.73
2023-03-02T14:35:15.950Z,40.66
2023-03-02T14:37:47.603Z,40.66
2023-03-02T14:40:18.885Z,39.81
2023-03-02T14:42:46.420Z,39.91
2023-03-02T14:45:13.592Z,40.07
2023-03-02T14:47:40.541Z,41.10
2023-03-02T14:50:07.960Z,42.11
2023-03-02T14:52:44.536Z,40.72
2023-03-02T14:55:37.781Z,40.87
2023-03-02T14:58:11.006Z,40.72
2023-03-02T15:00:38.012Z,41.14
2023-03-02T15:03:05.025Z,41.68
2023-03-02T15:05:32.245Z,41.12
2023-03-02T15:07:59.246Z,39.80
2023-03-02T15:10:26.225Z,38.39
2023-03-02T15:12:54.973Z,37.82
2023-03-02T15:15:23.062Z,38.66
2023-03-02T15:17:51.605Z,38.58
2023-03-02T15:20:18.529Z,39.28
2023-03-02T15:22:46.625Z,39.32
2023-03-02T15:25:13.661Z,38.08
2023-03-02T15:27:41.635Z,36.85
2023-03-02T15:30:09.241Z,36.88
2023-03-02T15:32:36.741Z,36.90
2023-03-02T15:35:04.673Z,36.93
2023-03-02T15:37:31.889Z,38.20
2023-03-02T15:40:01.435Z,40.09
2023-03-02T15:42:28.404Z,41.11
2023-03-02T15:44:55.362Z,40.88
2023-03-02T15:47:22.570Z,41.17
2023-03-02T15:49:50.180Z,41.95
2023-03-02T15:52:17.221Z,41.25
2023-03-02T15:54:44.164Z,41.27
2023-03-02T15:57:11.574Z,41.15
2023-03-02T15:59:38.618Z,39.75
2023-03-02T16:02:05.641Z,39.94
2023-03-02T16:04:32.826Z,39.90
2023-03-02T16:06:59.863Z,40.39
2023-03-02T16:09:29.039Z,39.42
2023-03-02T16:11:56.257Z,38.18
2023-03-02T16:14:23.447Z,38.01
2023-03-02T16:16:50.627Z,38.24
2023-03-02T16:19:19.185Z,37.30
2023-03-02T16:21:47.318Z,37.01
2023-03-02T16:24:16.378Z,36.91
2023-03-02T16:26:43.619Z,36.90
2023-03-02T16:29:10.881Z,36.19
2023-03-02T16:31:39.250Z,36.24
2023-03-02T16:34:08.861Z,35.92
2023-03-02T16:36:37.009Z,35.51
2023-03-02T16:39:04.416Z,34.51
2023-03-02T16:41:31.390Z,34.14
2023-03-02T16:43:59.153Z,34.71
2023-03-02T16:46:27.790Z,35.43
2023-03-02T16:48:55.140Z,36.27
2023-03-02T16:51:22.209Z,36.78
2023-03-02T16:53:49.645Z,36.83
2023-03-02T16:56:16.845Z,36.80
2023-03-02T16:58:43.928Z,37.82
2023-03-02T17:01:13.887Z,37.62
2023-03-02T17:03:41.034Z,37.41
2023-03-02T17:06:09.590Z,37.53
2023-03-02T17:08:37.007Z,40.19
2023-03-02T17:11:04.106Z,41.23
2023-03-02T17:13:31.464Z,41.99
2023-03-02T17:15:58.583Z,42.07
2023-03-02T17:18:27.717Z,42.23
2023-03-02T17:20:57.506Z,42.00
2023-03-02T17:23:25.164Z,40.52
2023-03-02T17:25:54.025Z,40.06
2023-03-02T17:28:21.037Z,39.18
2023-03-02T17:30:50.390Z,38.70
2023-03-02T17:33:18.368Z,38.09
2023-03-02T17:35:46.468Z,38.33
2023-03-02T17:38:15.169Z,38.58
2023-03-02T17:40:42.758Z,38.56
2023-03-02T17:43:10.924Z,38.61
2023-03-02T17:45:38.209Z,38.63
2023-03-02T17:48:05.642Z,38.63
2023-03-02T17:50:32.796Z,38.73
2023-03-02T17:53:00.397Z,39.01
2023-03-02T17:55:27.487Z,39.61
2023-03-02T17:57:54.579Z,39.64
2023-03-02T18:00:22.665Z,40.23
2023-03-02T18:02:50.274Z,39.78
2023-03-02T18:05:20.017Z,40.12
2023-03-02T18:07:47.369Z,39.90
2023-03-02T18:10:14.406Z,40.15
2023-03-02T18:12:41.501Z,40.32
2023-03-02T18:15:09.273Z,40.42
2023-03-02T18:17:36.348Z,40.54
2023-03-02T18:20:03.816Z,41.30
2023-03-02T18:22:31.003Z,43.05
2023-03-02T18:24:58.090Z,42.65
2023-03-02T18:27:25.207Z,42.09
2023-03-02T18:29:52.298Z,41.70
2023-03-02T18:32:20.797Z,41.66
2023-03-02T18:34:48.725Z,41.17
2023-03-02T18:37:15.806Z,41.30
2023-03-02T18:39:43.759Z,40.58
2023-03-02T18:42:12.656Z,41.12
2023-03-02T18:44:39.791Z,41.40
2023-03-02T18:47:09.697Z,40.54
2023-03-02T18:49:38.348Z,40.94
2023-03-02T18:52:07.029Z,41.61
2023-03-02T18:54:34.087Z,40.77
2023-03-02T18:57:01.806Z,41.55
2023-03-02T18:59:29.971Z,42.46
2023-03-02T19:01:57.750Z,43.05
2023-03-02T19:04:26.794Z,43.46
2023-03-02T19:06:55.742Z,43.49
2023-03-02T19:09:23.740Z,43.63
2023-03-02T19:11:52.069Z,43.45
2023-03-02T19:14:19.370Z,43.43
2023-03-02T19:16:46.959Z,43.96
2023-03-02T19:19:14.182Z,43.97
2023-03-02T19:21:41.361Z,43.97
2023-03-02T19:24:09.391Z,44.70
2023-03-02T19:26:36.450Z,45.84
2023-03-02T19:29:06.326Z,47.90
2023-03-02T19:31:33.626Z,49.33
2023-03-02T19:34:00.730Z,50.02
2023-03-02T19:36:27.819Z,49.65
2023-03-02T19:38:54.799Z,47.56
2023-03-02T19:41:22.205Z,46.59
2023-03-02T19:43:49.460Z,45.64
2023-03-02T19:46:17.288Z,45.76
2023-03-02T19:48:44.366Z,45.60
2023-03-02T19:51:13.822Z,45.40
2023-03-02T19:53:41.409Z,45.28
2023-03-02T19:56:12.028Z,45.58
2023-03-02T19:58:47.037Z,45.63
2023-03-02T20:01:16.896Z,44.77
2023-03-02T20:03:44.432Z,45.03
2023-03-02T20:06:11.523Z,44.46
2023-03-02T20:08:38.683Z,44.68
2023-03-02T20:11:05.715Z,45.52
2023-03-02T20:13:33.310Z,44.36
2023-03-02T20:16:00.876Z,44.77
2023-03-02T20:18:28.051Z,44.97
2023-03-02T20:20:55.063Z,45.16
2023-03-02T20:23:22.420Z,45.53
2023-03-02T20:25:50.112Z,45.40
2023-03-02T20:28:18.383Z,45.14
2023-03-02T20:30:48.255Z,45.61
2023-03-02T20:33:15.815Z,45.50
2023-03-02T20:35:43.765Z,46.18
2023-03-02T20:38:25.431Z,45.78
2023-03-02T20:40:53.327Z,45.70
2023-03-02T20:43:20.783Z,44.97
2023-03-02T20:45:47.820Z,45.30
2023-03-02T20:48:14.804Z,44.51
2023-03-02T20:50:41.883Z,45.21
2023-03-02T20:53:09.668Z,45.22
2023-03-02T20:55:36.874Z,45.18
2023-03-02T20:58:05.466Z,45.03
2023-03-02T21:00:32.955Z,45.17
2023-03-02T21:02:59.981Z,44.55
2023-03-02T21:05:27.622Z,45.70
2023-03-02T21:07:54.775Z,46.63
2023-03-02T21:10:28.144Z,47.88
2023-03-02T21:12:55.284Z,47.10
2023-03-02T21:15:23.955Z,47.36
2023-03-02T21:17:51.807Z,47.54
2023-03-02T21:20:18.847Z,47.00
2023-03-02T21:22:46.794Z,47.86
2023-03-02T21:25:13.941Z,48.04
2023-03-02T21:27:41.180Z,48.21
2023-03-02T21:30:09.477Z,47.74
2023-03-02T21:32:36.387Z,47.44
2023-03-02T21:35:03.362Z,46.68
2023-03-02T21:37:30.569Z,47.12
2023-03-02T21:39:59.090Z,46.26
2023-03-02T21:42:26.619Z,46.93
2023-03-02T21:44:56.038Z,47.03
2023-03-02T21:47:23.090Z,47.15
2023-03-02T21:49:50.059Z,47.18
2023-03-02T21:52:17.001Z,46.75
2023-03-02T21:54:44.103Z,46.15
2023-03-02T21:57:11.156Z,46.88
2023-03-02T21:59:38.141Z,47.27
2023-03-02T22:02:05.208Z,47.30
2023-03-02T22:04:33.704Z,47.57
2023-03-02T22:07:01.575Z,47.08
2023-03-02T22:09:28.697Z,47.53
2023-03-02T22:11:55.721Z,47.52
2023-03-02T22:14:22.701Z,47.09
2023-03-02T22:16:49.769Z,47.71
2023-03-02T22:19:23.457Z,47.62
2023-03-02T22:21:50.766Z,47.50
2023-03-02T22:24:23.512Z,47.17
2023-03-02T22:27:02.144Z,46.52
2023-03-02T22:29:30.064Z,46.71
2023-03-02T22:31:59.412Z,46.74
2023-03-02T22:34:30.162Z,46.70
2023-03-02T22:37:03.200Z,46.33
2023-03-02T22:39:32.320Z,46.94
2023-03-02T22:42:10.349Z,46.70
2023-03-02T22:44:39.099Z,47.91
2023-03-02T22:47:15.724Z,47.93
2023-03-02T22:49:43.158Z,47.38
2023-03-02T22:52:20.224Z,46.44
2023-03-02T22:54:47.395Z,47.02
2023-03-02T22:57:29.125Z,46.67
2023-03-02T23:00:30.881Z,46.34
2023-03-02T23:02:58.060Z,47.16
2023-03-02T23:05:26.299Z,46.85
2023-03-02T23:08:17.096Z,47.59
2023-03-02T23:10:44.878Z,47.65
2023-03-02T23:13:12.676Z,47.42
2023-03-02T23:15:41.744Z,47.88
2023-03-02T23:18:26.948Z,47.14
2023-03-02T23:20:54.226Z,47.53
2023-03-02T23:23:25.096Z,47.29
2023-03-02T23:25:52.142Z,46.94
2023-03-02T23:28:19.174Z,46.43
2023-03-02T23:30:47.667Z,46.72
2023-03-02T23:33:14.645Z,46.95
2023-03-02T23:35:42.175Z,46.46
2023-03-02T23:38:09.189Z,46.54
2023-03-02T23:40:36.169Z,47.23
2023-03-02T23:43:03.252Z,46.81
2023-03-02T23:45:30.293Z,46.62
2023-03-02T23:47:59.215Z,46.63
2023-03-02T23:50:26.317Z,46.50
2023-03-02T23:52:53.391Z,47.59
2023-03-02T23:55:20.368Z,47.58
2023-03-02T23:57:47.506Z,47.72
